createdAt,value
2024-01-22T00:02:12.073Z,3.30
2024-01-22T00:04:40.248Z,3.30
2024-01-22T00:07:07.927Z,3.30
2024-01-22T00:09:36.929Z,3.30
2024-01-22T00:12:05.027Z,3.30
2024-01-22T00:14:33.752Z,3.30
2024-01-22T00:17:01.410Z,3.30
2024-01-22T00:19:28.921Z,3.40
2024-01-22T00:21:56.201Z,3.40
2024-01-22T00:24:23.919Z,3.40
2024-01-22T00:26:52.840Z,3.40
2024-01-22T00:29:20.297Z,3.40
2024-01-22T00:31:48.014Z,3.30
2024-01-22T00:34:15.736Z,3.30
2024-01-22T00:36:43.598Z,3.30
2024-01-22T00:39:11.385Z,3.30
2024-01-22T00:41:38.948Z,3.30
2024-01-22T00:44:06.429Z,3.30
2024-01-22T00:46:35.468Z,3.30
2024-01-22T00:49:03.743Z,3.30
2024-01-22T00:51:31.220Z,3.30
2024-01-22T00:54:01.158Z,3.20
2024-01-22T00:56:28.570Z,3.20
2024-01-22T00:58:57.452Z,3.20
2024-01-22T01:01:25.775Z,3.10
2024-01-22T01:03:53.903Z,3.10
2024-01-22T01:06:21.247Z,3.10
2024-01-22T01:08:48.650Z,3.10
2024-01-22T01:11:16.029Z,3.10
2024-01-22T01:13:44.207Z,3.10
2024-01-22T01:16:11.975Z,3.10
2024-01-22T01:18:39.358Z,3.10
2024-01-22T01:21:07.055Z,3.10
2024-01-22T01:23:34.698Z,3.10
2024-01-22T01:26:02.212Z,3.10
2024-01-22T01:28:29.597Z,3.10
2024-01-22T01:30:56.967Z,3.10
2024-01-22T01:33:24.620Z,3.10
2024-01-22T01:35:52.025Z,3.10
2024-01-22T01:38:19.487Z,3.10
2024-01-22T01:40:47.159Z,3.10
2024-01-22T01:43:17.541Z,3.10
2024-01-22T01:45:44.936Z,3.20
2024-01-22T01:48:14.375Z,3.20
2024-01-22T01:50:41.898Z,3.20
2024-01-22T01:53:10.587Z,3.20
2024-01-22T01:55:39.020Z,3.20
2024-01-22T01:58:06.695Z,3.30
2024-01-22T02:00:35.064Z,3.30
2024-01-22T02:03:02.966Z,3.40
2024-01-22T02:05:30.765Z,3.40
2024-01-22T02:07:58.506Z,3.50
2024-01-22T02:10:26.033Z,3.50
2024-01-22T02:12:53.297Z,3.50
2024-01-22T02:15:20.833Z,3.50
2024-01-22T02:17:48.426Z,3.50
2024-01-22T02:20:16.336Z,3.50
2024-01-22T02:22:43.783Z,3.60
2024-01-22T02:25:11.480Z,3.50
2024-01-22T02:27:38.896Z,3.60
2024-01-22T02:30:07.917Z,3.60
2024-01-22T02:32:35.382Z,3.60
2024-01-22T02:35:02.665Z,3.60
2024-01-22T02:37:31.061Z,3.60
2024-01-22T02:39:58.372Z,3.60
2024-01-22T02:42:25.605Z,3.50
2024-01-22T02:44:52.919Z,3.50
2024-01-22T02:47:20.284Z,3.50
2024-01-22T02:49:48.425Z,3.50
2024-01-22T02:52:16.111Z,3.40
2024-01-22T02:54:43.412Z,3.40
2024-01-22T02:57:13.783Z,3.40
2024-01-22T02:59:44.303Z,3.40
2024-01-22T03:02:11.812Z,3.40
2024-01-22T03:04:39.333Z,3.40
2024-01-22T03:07:07.109Z,3.40
2024-01-22T03:09:34.848Z,3.40
2024-01-22T03:12:02.600Z,3.30
2024-01-22T03:14:31.336Z,3.30
2024-01-22T03:16:59.022Z,3.20
2024-01-22T03:19:27.854Z,3.10
2024-01-22T03:21:55.412Z,3.00
2024-01-22T03:24:23.823Z,3.00
2024-01-22T03:26:51.421Z,2.90
2024-01-22T03:29:19.952Z,2.70
2024-01-22T03:31:47.585Z,2.80
2024-01-22T03:34:15.490Z,2.80
2024-01-22T03:36:43.083Z,2.70
2024-01-22T03:39:13.766Z,2.70
2024-01-22T03:41:41.487Z,2.70
2024-01-22T03:44:09.946Z,2.60
2024-01-22T03:46:37.702Z,2.60
2024-01-22T03:49:05.270Z,2.60
2024-01-22T03:51:32.971Z,2.60
2024-01-22T03:54:01.801Z,2.60
2024-01-22T03:56:29.147Z,2.60
2024-01-22T03:58:56.613Z,2.50
2024-01-22T04:01:24.074Z,2.50
2024-01-22T04:03:55.019Z,2.50
2024-01-22T04:06:22.400Z,2.50
2024-01-22T04:08:50.100Z,2.50
2024-01-22T04:11:18.998Z,2.50
2024-01-22T04:13:47.540Z,2.60
2024-01-22T04:16:15.990Z,2.60
2024-01-22T04:18:44.309Z,2.60
2024-01-22T04:21:12.450Z,2.60
2024-01-22T04:23:39.909Z,2.70
2024-01-22T04:26:07.411Z,2.70
2024-01-22T04:28:34.755Z,2.70
2024-01-22T04:31:03.564Z,2.70
2024-01-22T04:33:31.416Z,2.70
2024-01-22T04:35:58.990Z,2.70
2024-01-22T04:38:31.266Z,2.60
2024-01-22T04:40:58.590Z,2.60
2024-01-22T04:43:27.501Z,2.60
2024-01-22T04:45:54.850Z,2.60
2024-01-22T04:48:22.194Z,2.60
2024-01-22T04:50:49.683Z,2.60
2024-01-22T04:53:18.180Z,2.60
2024-01-22T04:55:46.736Z,2.60
2024-01-22T04:58:15.177Z,2.60
2024-01-22T05:00:43.680Z,2.60
2024-01-22T05:03:11.922Z,2.60
2024-01-22T05:05:41.195Z,2.60
2024-01-22T05:08:08.947Z,2.60
2024-01-22T05:10:36.374Z,2.70
2024-01-22T05:13:04.839Z,2.70
2024-01-22T05:15:33.012Z,2.60
2024-01-22T05:18:00.403Z,2.60
2024-01-22T05:20:27.845Z,2.60
2024-01-22T05:22:56.461Z,2.50
2024-01-22T05:25:23.865Z,2.50
2024-01-22T05:27:51.119Z,2.50
2024-01-22T05:30:19.895Z,2.50
2024-01-22T05:32:50.396Z,2.50
2024-01-22T05:35:20.761Z,2.60
2024-01-22T05:37:50.234Z,2.60
2024-01-22T05:40:18.073Z,2.60
2024-01-22T05:42:47.069Z,2.60
2024-01-22T05:45:15.223Z,2.60
2024-01-22T05:47:44.235Z,2.70
2024-01-22T05:50:11.782Z,2.70
2024-01-22T05:52:39.443Z,2.60
2024-01-22T05:55:07.288Z,2.70
2024-01-22T05:57:35.873Z,2.70
2024-01-22T06:00:10.666Z,2.80
2024-01-22T06:02:40.658Z,2.80
2024-01-22T06:05:08.604Z,2.90
2024-01-22T06:07:40.415Z,2.90
2024-01-22T06:10:09.150Z,3.00
2024-01-22T06:12:37.156Z,3.00
2024-01-22T06:15:05.368Z,3.00
2024-01-22T06:17:34.292Z,3.10
2024-01-22T06:20:04.471Z,3.10
2024-01-22T06:22:34.540Z,3.10
2024-01-22T06:25:01.848Z,3.10
2024-01-22T06:27:29.352Z,3.10
2024-01-22T06:30:00.612Z,3.10
2024-01-22T06:32:30.859Z,3.10
2024-01-22T06:34:58.556Z,3.10
2024-01-22T06:37:26.257Z,3.00
2024-01-22T06:39:54.115Z,3.00
2024-01-22T06:42:27.819Z,3.00
2024-01-22T06:45:02.451Z,2.90
2024-01-22T06:47:31.382Z,2.90
2024-01-22T06:49:59.421Z,2.90
2024-01-22T06:52:26.928Z,2.90
2024-01-22T06:54:56.562Z,2.80
2024-01-22T06:57:24.319Z,2.90
2024-01-22T06:59:56.026Z,2.80
2024-01-22T07:02:28.158Z,2.80
2024-01-22T07:04:57.473Z,2.80
2024-01-22T07:07:25.237Z,2.70
2024-01-22T07:09:53.973Z,2.70
2024-01-22T07:12:21.549Z,2.70
2024-01-22T07:14:49.745Z,2.70
2024-01-22T07:17:20.377Z,2.70
2024-01-22T07:19:48.603Z,2.70
2024-01-22T07:22:18.372Z,2.70
2024-01-22T07:24:46.010Z,2.80
2024-01-22T07:27:15.270Z,2.90
2024-01-22T07:29:43.483Z,2.90
2024-01-22T07:32:13.339Z,2.90
2024-01-22T07:34:42.010Z,3.00
2024-01-22T07:37:10.337Z,3.00
2024-01-22T07:39:37.917Z,3.10
2024-01-22T07:42:05.695Z,3.20
2024-01-22T07:44:34.533Z,3.30
2024-01-22T07:47:02.777Z,3.30
2024-01-22T07:49:31.069Z,3.40
2024-01-22T07:52:00.949Z,3.50
2024-01-22T07:54:29.142Z,3.60
2024-01-22T07:56:56.598Z,3.60
2024-01-22T07:59:24.135Z,3.70
2024-01-22T08:01:52.448Z,3.90
2024-01-22T08:04:20.212Z,4.00
2024-01-22T08:06:48.156Z,4.00
2024-01-22T08:09:16.087Z,4.20
2024-01-22T08:11:45.012Z,4.20
2024-01-22T08:14:13.711Z,4.30
2024-01-22T08:16:41.320Z,4.40
2024-01-22T08:19:09.168Z,4.40
2024-01-22T08:21:36.718Z,4.50
2024-01-22T08:24:04.688Z,4.60
2024-01-22T08:26:34.756Z,4.70
2024-01-22T08:29:02.701Z,4.70
2024-01-22T08:31:30.497Z,4.80
2024-01-22T08:33:58.420Z,4.80
2024-01-22T08:36:26.968Z,4.80
2024-01-22T08:38:54.492Z,4.90
2024-01-22T08:41:27.938Z,5.00
2024-01-22T08:44:03.222Z,5.00
2024-01-22T08:46:30.635Z,5.10
2024-01-22T08:48:58.179Z,5.20
2024-01-22T08:51:29.181Z,5.20
2024-01-22T08:53:57.416Z,5.30
2024-01-22T08:56:25.202Z,5.30
2024-01-22T08:58:53.097Z,5.40
2024-01-22T09:01:21.332Z,5.40
2024-01-22T09:03:49.041Z,5.50
2024-01-22T09:06:17.236Z,5.40
2024-01-22T09:08:45.509Z,5.50
2024-01-22T09:11:14.099Z,5.50
2024-01-22T09:13:44.031Z,5.50
2024-01-22T09:16:16.216Z,5.60
2024-01-22T09:18:44.141Z,5.60
2024-01-22T09:21:12.817Z,5.60
2024-01-22T09:23:40.406Z,5.70
2024-01-22T09:26:09.330Z,5.80
2024-01-22T09:28:37.116Z,5.90
2024-01-22T09:31:04.752Z,5.90
2024-01-22T09:33:32.361Z,6.00
2024-01-22T09:36:05.362Z,6.10
2024-01-22T09:38:33.123Z,6.20
2024-01-22T09:41:01.388Z,6.30
2024-01-22T09:43:28.958Z,6.40
2024-01-22T09:45:58.005Z,6.50
2024-01-22T09:48:25.968Z,6.60
2024-01-22T09:50:55.321Z,6.60
2024-01-22T09:53:25.292Z,6.60
2024-01-22T09:55:54.220Z,6.70
2024-01-22T09:58:27.509Z,6.70
2024-01-22T10:00:56.169Z,6.70
2024-01-22T10:03:27.134Z,6.80
2024-01-22T10:05:57.073Z,6.80
2024-01-22T10:08:24.694Z,6.80
2024-01-22T10:10:53.748Z,6.80
2024-01-22T10:13:22.317Z,6.80
2024-01-22T10:15:51.140Z,6.80
2024-01-22T10:18:22.649Z,6.80
2024-01-22T10:20:52.619Z,6.90
2024-01-22T10:23:20.216Z,6.90
2024-01-22T10:25:48.526Z,6.90
2024-01-22T10:28:18.865Z,6.90
2024-01-22T10:31:01.226Z,7.00
2024-01-22T10:33:30.362Z,7.00
2024-01-22T10:36:09.995Z,7.00
2024-01-22T10:38:37.476Z,7.00
2024-01-22T10:41:20.170Z,7.10
2024-01-22T10:43:50.513Z,7.10
2024-01-22T10:46:20.598Z,7.10
2024-01-22T10:48:49.713Z,7.10
2024-01-22T10:51:20.002Z,7.20
2024-01-22T10:53:50.401Z,7.30
2024-01-22T10:56:24.744Z,7.30
2024-01-22T10:58:56.431Z,7.40
2024-01-22T11:01:25.704Z,7.40
2024-01-22T11:03:58.481Z,7.40
2024-01-22T11:06:29.620Z,7.50
2024-01-22T11:08:59.747Z,7.60
2024-01-22T11:11:31.280Z,7.70
2024-01-22T11:14:02.729Z,7.80
2024-01-22T11:16:31.456Z,7.80
2024-01-22T11:19:04.758Z,8.00
2024-01-22T11:21:43.172Z,8.10
2024-01-22T11:24:16.254Z,8.10
2024-01-22T11:26:52.881Z,8.20
2024-01-22T11:29:27.314Z,8.30
2024-01-22T11:31:56.628Z,8.40
2024-01-22T11:34:45.512Z,8.50
2024-01-22T11:37:35.148Z,8.50
2024-01-22T11:40:08.449Z,8.60
2024-01-22T11:42:36.304Z,8.60
2024-01-22T11:45:15.671Z,8.70
2024-01-22T11:47:44.057Z,8.80
2024-01-22T11:50:14.640Z,8.80
2024-01-22T11:52:44.489Z,8.90
2024-01-22T11:55:12.140Z,9.00
2024-01-22T11:57:41.156Z,9.00
2024-01-22T12:00:23.562Z,9.00
2024-01-22T12:02:52.670Z,9.00
2024-01-22T12:05:21.397Z,9.10
2024-01-22T12:07:53.483Z,9.10
2024-01-22T12:10:22.607Z,9.10
2024-01-22T12:12:55.467Z,9.10
2024-01-22T12:15:26.918Z,9.10
2024-01-22T12:17:55.736Z,9.10
2024-01-22T12:20:24.856Z,9.10
2024-01-22T12:22:57.776Z,9.10
2024-01-22T12:25:43.732Z,9.20
2024-01-22T12:28:14.764Z,9.20
2024-01-22T12:30:46.153Z,9.30
2024-01-22T12:33:29.127Z,9.30
2024-01-22T12:36:13.971Z,9.40
2024-01-22T12:38:52.625Z,9.50
2024-01-22T12:41:22.606Z,9.70
2024-01-22T12:43:58.389Z,9.70
2024-01-22T12:46:27.225Z,9.70
2024-01-22T12:48:57.038Z,9.80
2024-01-22T12:51:28.802Z,9.80
2024-01-22T12:53:58.850Z,9.80
2024-01-22T12:56:27.753Z,9.80
2024-01-22T12:58:55.704Z,9.70
2024-01-22T13:01:23.772Z,9.70
2024-01-22T13:03:51.698Z,9.70
2024-01-22T13:06:23.081Z,9.70
2024-01-22T13:08:52.961Z,9.70
2024-01-22T13:11:22.433Z,9.70
2024-01-22T13:13:49.859Z,9.80
2024-01-22T13:16:19.646Z,9.80
2024-01-22T13:18:50.183Z,9.90
2024-01-22T13:21:19.925Z,10.00
2024-01-22T13:23:49.571Z,10.00
2024-01-22T13:26:17.680Z,10.10
2024-01-22T13:28:47.030Z,10.20
2024-01-22T13:31:16.251Z,10.20
2024-01-22T13:33:49.222Z,10.20
2024-01-22T13:36:19.969Z,10.30
2024-01-22T13:38:48.067Z,10.30
2024-01-22T13:41:16.058Z,10.30
2024-01-22T13:43:45.849Z,10.30
2024-01-22T13:46:14.263Z,10.30
2024-01-22T13:48:45.668Z,10.30
2024-01-22T13:51:16.641Z,10.30
2024-01-22T13:53:47.512Z,10.30
2024-01-22T13:56:15.582Z,10.30
2024-01-22T13:58:44.192Z,10.30
2024-01-22T14:01:11.957Z,10.30
2024-01-22T14:03:41.877Z,10.30
2024-01-22T14:06:10.866Z,10.30
2024-01-22T14:08:39.993Z,10.30
2024-01-22T14:11:08.012Z,10.30
2024-01-22T14:13:36.162Z,10.30
2024-01-22T14:16:06.167Z,10.30
2024-01-22T14:18:35.844Z,10.30
2024-01-22T14:21:04.724Z,10.30
2024-01-22T14:23:33.181Z,10.30
2024-01-22T14:26:00.691Z,10.30
2024-01-22T14:28:29.839Z,10.30
2024-01-22T14:30:58.671Z,10.30
2024-01-22T14:33:27.918Z,10.30
2024-01-22T14:35:55.874Z,10.30
2024-01-22T14:38:31.177Z,10.30
2024-01-22T14:41:02.586Z,10.30
2024-01-22T14:43:34.942Z,10.30
2024-01-22T14:46:03.086Z,10.30
2024-01-22T14:48:36.106Z,10.30
2024-01-22T14:51:05.753Z,10.30
2024-01-22T14:53:33.696Z,10.30
2024-01-22T14:56:01.150Z,10.30
2024-01-22T14:58:29.208Z,10.20
2024-01-22T15:00:57.684Z,10.30
2024-01-22T15:03:26.908Z,10.20
2024-01-22T15:05:55.801Z,10.20
2024-01-22T15:08:23.597Z,10.20
2024-01-22T15:10:51.836Z,10.20
2024-01-22T15:13:20.885Z,10.30
2024-01-22T15:15:48.281Z,10.20
2024-01-22T15:18:18.840Z,10.20
2024-01-22T15:20:47.713Z,10.20
2024-01-22T15:23:17.873Z,10.10
2024-01-22T15:25:45.542Z,10.10
2024-01-22T15:28:13.878Z,10.10
2024-01-22T15:30:41.751Z,10.10
2024-01-22T15:33:11.204Z,10.10
2024-01-22T15:35:40.078Z,10.10
2024-01-22T15:38:14.152Z,10.20
2024-01-22T15:40:41.922Z,10.20
2024-01-22T15:43:09.641Z,10.20
2024-01-22T15:45:37.158Z,10.20
2024-01-22T15:48:07.301Z,10.20
2024-01-22T15:50:34.950Z,10.20
2024-01-22T15:53:02.621Z,10.20
2024-01-22T15:55:31.475Z,10.20
2024-01-22T15:58:00.447Z,10.20
2024-01-22T16:00:30.751Z,10.20
2024-01-22T16:02:59.655Z,10.20
2024-01-22T16:05:28.603Z,10.20
2024-01-22T16:07:56.464Z,10.10
2024-01-22T16:10:23.987Z,10.10
2024-01-22T16:12:53.786Z,10.00
2024-01-22T16:15:21.497Z,10.00
2024-01-22T16:17:50.080Z,9.90
2024-01-22T16:20:18.802Z,9.90
2024-01-22T16:22:46.683Z,9.80
2024-01-22T16:25:16.462Z,9.80
2024-01-22T16:27:49.827Z,9.80
2024-01-22T16:30:18.478Z,9.80
2024-01-22T16:32:46.321Z,9.80
2024-01-22T16:35:15.701Z,9.90
2024-01-22T16:37:44.566Z,9.90
2024-01-22T16:40:16.763Z,10.00
2024-01-22T16:42:44.450Z,10.00
2024-01-22T16:45:12.295Z,10.00
2024-01-22T16:47:41.125Z,10.10
2024-01-22T16:50:11.978Z,10.10
2024-01-22T16:52:39.560Z,10.10
2024-01-22T16:55:09.230Z,10.20
2024-01-22T16:57:38.838Z,10.20
2024-01-22T17:00:07.513Z,10.30
2024-01-22T17:02:37.068Z,10.30
2024-01-22T17:05:05.215Z,10.40
2024-01-22T17:07:33.532Z,10.40
2024-01-22T17:10:01.692Z,10.40
2024-01-22T17:12:29.235Z,10.50
2024-01-22T17:14:58.574Z,10.50
2024-01-22T17:17:26.202Z,10.50
2024-01-22T17:19:54.903Z,10.50
2024-01-22T17:22:22.609Z,10.50
2024-01-22T17:24:50.042Z,10.50
2024-01-22T17:27:17.782Z,10.50
2024-01-22T17:29:46.988Z,10.50
2024-01-22T17:32:15.978Z,10.50
2024-01-22T17:34:44.644Z,10.40
2024-01-22T17:37:13.694Z,10.40
2024-01-22T17:39:42.932Z,10.40
2024-01-22T17:42:11.499Z,10.40
2024-01-22T17:44:40.918Z,10.40
2024-01-22T17:47:08.483Z,10.40
2024-01-22T17:49:37.122Z,10.40
2024-01-22T17:52:05.135Z,10.40
2024-01-22T17:54:32.664Z,10.40
2024-01-22T17:57:01.547Z,10.40
2024-01-22T17:59:29.020Z,10.40
2024-01-22T18:01:56.681Z,10.40
2024-01-22T18:04:25.551Z,10.40
2024-01-22T18:06:54.577Z,10.30
2024-01-22T18:09:23.236Z,10.30
2024-01-22T18:11:51.236Z,10.30
2024-01-22T18:14:18.727Z,10.30
2024-01-22T18:16:46.570Z,10.30
2024-01-22T18:19:17.596Z,10.20
2024-01-22T18:21:45.617Z,10.20
2024-01-22T18:24:14.021Z,10.20
2024-01-22T18:26:43.290Z,10.10
2024-01-22T18:29:11.823Z,10.10
2024-01-22T18:31:40.756Z,10.10
2024-01-22T18:34:08.509Z,10.10
2024-01-22T18:36:36.116Z,10.10
2024-01-22T18:39:05.092Z,10.00
2024-01-22T18:41:33.158Z,10.00
2024-01-22T18:44:03.667Z,10.00
2024-01-22T18:46:31.856Z,10.00
2024-01-22T18:49:00.455Z,10.00
2024-01-22T18:51:29.082Z,10.00
2024-01-22T18:53:57.647Z,9.90
2024-01-22T18:56:25.475Z,9.90
2024-01-22T18:58:55.097Z,9.90
2024-01-22T19:01:22.658Z,9.90
2024-01-22T19:03:51.031Z,9.90
2024-01-22T19:06:19.206Z,9.90
2024-01-22T19:08:47.327Z,9.80
2024-01-22T19:11:18.212Z,9.80
2024-01-22T19:13:46.834Z,9.80
2024-01-22T19:16:16.701Z,9.80
2024-01-22T19:18:45.278Z,9.70
2024-01-22T19:21:18.140Z,9.70
2024-01-22T19:23:46.068Z,9.70
2024-01-22T19:26:15.376Z,9.70
2024-01-22T19:28:44.326Z,9.60
2024-01-22T19:31:11.978Z,9.60
2024-01-22T19:33:39.556Z,9.60
2024-01-22T19:36:07.486Z,9.60
2024-01-22T19:38:36.285Z,9.60
2024-01-22T19:41:03.793Z,9.60
2024-01-22T19:43:31.266Z,9.60
2024-01-22T19:45:58.746Z,9.70
2024-01-22T19:48:26.343Z,9.60
2024-01-22T19:50:56.139Z,9.60
2024-01-22T19:53:23.989Z,9.60
2024-01-22T19:55:52.908Z,9.60
2024-01-22T19:58:20.567Z,9.60
2024-01-22T20:00:48.489Z,9.60
2024-01-22T20:03:18.725Z,9.60
2024-01-22T20:05:46.185Z,9.60
2024-01-22T20:08:14.403Z,9.60
2024-01-22T20:10:43.263Z,9.60
2024-01-22T20:13:10.700Z,9.60
2024-01-22T20:15:38.532Z,9.60
2024-01-22T20:18:06.334Z,9.70
2024-01-22T20:20:34.655Z,9.60
2024-01-22T20:23:02.163Z,9.60
2024-01-22T20:25:31.016Z,9.60
2024-01-22T20:28:00.009Z,9.60
2024-01-22T20:30:27.514Z,9.50
2024-01-22T20:32:55.031Z,9.50
2024-01-22T20:35:23.057Z,9.50
2024-01-22T20:37:52.060Z,9.50
2024-01-22T20:40:20.862Z,9.50
2024-01-22T20:42:48.205Z,9.50
2024-01-22T20:45:17.155Z,9.50
2024-01-22T20:47:47.917Z,9.50
2024-01-22T20:50:15.569Z,9.40
2024-01-22T20:52:44.133Z,9.40
2024-01-22T20:55:11.930Z,9.40
2024-01-22T20:57:42.131Z,9.40
2024-01-22T21:00:12.191Z,9.50
2024-01-22T21:02:41.687Z,9.50
2024-01-22T21:05:09.470Z,9.40
2024-01-22T21:07:40.462Z,9.50
2024-01-22T21:10:08.833Z,9.50
2024-01-22T21:12:37.082Z,9.40
2024-01-22T21:15:06.208Z,9.40
2024-01-22T21:17:35.173Z,9.40
2024-01-22T21:20:03.584Z,9.40
2024-01-22T21:22:32.593Z,9.40
2024-01-22T21:25:00.258Z,9.40
2024-01-22T21:27:30.040Z,9.40
2024-01-22T21:29:57.515Z,9.40
2024-01-22T21:32:25.888Z,9.40
2024-01-22T21:34:53.728Z,9.30
2024-01-22T21:37:21.017Z,9.40
2024-01-22T21:39:49.578Z,9.30
2024-01-22T21:42:19.758Z,9.30
2024-01-22T21:44:48.188Z,9.30
2024-01-22T21:47:16.763Z,9.30
2024-01-22T21:49:45.173Z,9.30
2024-01-22T21:52:13.422Z,9.20
2024-01-22T21:54:40.970Z,9.20
2024-01-22T21:57:10.397Z,9.20
2024-01-22T21:59:41.210Z,9.20
2024-01-22T22:02:11.080Z,9.20
2024-01-22T22:04:39.644Z,9.20
2024-01-22T22:07:08.570Z,9.20
2024-01-22T22:09:38.036Z,9.30
2024-01-22T22:12:05.897Z,9.20
2024-01-22T22:14:33.866Z,9.20
2024-01-22T22:17:01.648Z,9.20
2024-01-22T22:19:31.525Z,9.20
2024-01-22T22:21:58.980Z,9.20
2024-01-22T22:24:26.448Z,9.20
2024-01-22T22:26:53.854Z,9.20
2024-01-22T22:29:21.153Z,9.20
2024-01-22T22:31:49.036Z,9.10
2024-01-22T22:34:16.505Z,9.20
2024-01-22T22:36:43.971Z,9.10
2024-01-22T22:39:11.413Z,9.10
2024-01-22T22:41:41.946Z,9.20
2024-01-22T22:44:09.449Z,9.10
2024-01-22T22:46:43.292Z,9.20
2024-01-22T22:49:10.820Z,9.20
2024-01-22T22:51:43.071Z,9.20
2024-01-22T22:54:11.362Z,9.20
2024-01-22T22:56:38.942Z,9.20
2024-01-22T22:59:08.229Z,9.20
2024-01-22T23:01:35.712Z,9.20
2024-01-22T23:04:03.396Z,9.20
2024-01-22T23:06:31.089Z,9.20
2024-01-22T23:08:59.855Z,9.20
2024-01-22T23:11:29.268Z,9.20
2024-01-22T23:13:56.910Z,9.20
2024-01-22T23:16:24.644Z,9.20
2024-01-22T23:18:53.197Z,9.20
2024-01-22T23:21:22.656Z,9.20
2024-01-22T23:23:50.550Z,9.20
2024-01-22T23:26:18.317Z,9.10
2024-01-22T23:28:46.302Z,9.10
2024-01-22T23:31:13.608Z,9.10
2024-01-22T23:33:43.875Z,9.20
2024-01-22T23:36:14.975Z,9.10
2024-01-22T23:38:42.510Z,9.10
2024-01-22T23:41:10.319Z,9.10
2024-01-22T23:43:38.207Z,9.10
2024-01-22T23:46:05.762Z,9.10
2024-01-22T23:48:33.497Z,9.10
2024-01-22T23:51:01.043Z,9.10
2024-01-22T23:53:31.138Z,9.10
2024-01-22T23:55:58.428Z,9.10
2024-01-22T23:58:25.720Z,9.10
